07MA weather

Public forecast

Using degrees Fahrenheit for public forecast. Weather courtesy of forecast.io.

Closest aviation weather report (METAR) to West Pond Heliport

Closest report is Plymouth Municipal Airport, 1.0 nm (1.8 km) WSW. Retrieved 2020/08/14 11:52 UTC (59 minutes ago):

KPYM 141152Z AUTO 03006KT 10SM CLR 23/17 A3005 RMK AO2 SLP174 70003 T02280172 10228 20167 50001

Closest aviation forecast (TAF) to West Pond Heliport

Closest forecast is Cape Cod Coast Guard Air Station, 17.7 nm (32.7 km) SSE. Retrieved 2020/08/14 12:22 UTC (29 minutes ago):

TAF KFMH 141120Z 1412/1512 03006KT P6SM SCT250 FM141500 04010KT P6SM SCT250 FM142100 05009KT P6SM BKN250 FM150700 03009KT P6SM BKN250 FM150900 03010G20KT P6SM BKN250